Woodgate — D5BX7 — position and weather

sailwx.info

Track history (hours):
 
Tides and Currents Weather Stations Pressure Air Temp Water Temp Dewpoint Dewpoint Depression Visibility Wind Speed Wind Dir Waves Ship Positions

Woodgate

Last reported at 2014-Jul-23 01:25 UTC. Time now 2014-Jul-28 10:21 UTC.
Position N 29°15' E 032°41'.

Length 169 m; draft 9.9 m.

Type: Cargo ship. MMSI: 636015627.

Date/timePositionNaut miles runAvg speedWind from/ knotsBaromVisibWave heightAir tempDewpointWater temp
2014-Jul-23 01:25N 29°15' E 032°41'3411.9
2014-Jul-22 22:33N 29°48' E 032°32'2 1.0
2014-Jul-22 20:23N 29°50' E 032°32'  
2014-Jul-18 19:17N 36°03' E 015°37'912.1
2014-Jul-18 18:33N 36°05' E 015°26'1212.1
2014-Jul-18 17:33N 36°09' E 015°12'1212.0
2014-Jul-18 16:33N 36°12' E 014°58'1212.3
2014-Jul-18 15:33N 36°16' E 014°43'1212.4
2014-Jul-18 14:33N 36°20' E 014°29'1211.8
2014-Jul-18 13:33N 36°23' E 014°15'1212.0
2014-Jul-18 12:33N 36°26' E 014°00'1211.9
2014-Jul-18 11:33N 36°30' E 013°46'1212.0
2014-Jul-18 10:33N 36°35' E 013°33'1212.1
2014-Jul-18 09:33N 36°39' E 013°19'1312.9
2014-Jul-18 08:33N 36°44' E 013°04'1812.6
2014-Jul-18 07:09N 36°51' E 012°43'29712.1
2014-Jul-17 06:33N 37°26' E 006°33'1312.5
2014-Jul-17 05:32N 37°25' E 006°17'1413.0
2014-Jul-17 04:29N 37°24' E 006°00'1412.5
2014-Jul-17 03:24N 37°23' E 005°43'4611.9
2014-Jul-16 23:31N 37°18' E 004°46'1411.6
2014-Jul-16 22:21N 37°16' E 004°29'1111.2
2014-Jul-16 21:24N 37°16' E 004°15'1011.9
2014-Jul-16 20:33N 37°15' E 004°03'1612.0
2014-Jul-16 19:11N 37°13' E 003°42'812.1
2014-Jul-16 18:33N 37°12' E 003°33'1212.0
2014-Jul-16 17:32N 37°11' E 003°17'1111.5
2014-Jul-16 16:33N 37°10' E 003°03'1111.4
2014-Jul-16 15:33N 37°08' E 002°49'1212.0
2014-Jul-16 14:34N 37°06' E 002°34'1211.7
2014-Jul-16 13:33N 37°04' E 002°20'1211.6
2014-Jul-16 12:29N 37°01' E 002°05'1111.2
2014-Jul-16 11:29N 36°58' E 001°51'1011.0
2014-Jul-16 10:33N 36°58' E 001°38'1111.2
2014-Jul-16 09:33N 36°55' E 001°25'1111.4
2014-Jul-16 08:33N 36°52' E 001°11'1311.7
2014-Jul-16 07:27N 36°50' E 000°55'1411.8
2014-Jul-16 06:17N 36°48' E 000°38'911.6
2014-Jul-16 05:30N 36°46' E 000°27'1111.4
2014-Jul-16 04:33N 36°45' E 000°13'1211.5
2014-Jul-16 03:33N 36°43' W 000°01'1111.3
2014-Jul-16 02:33N 36°40' W 000°14'1211.6
2014-Jul-16 01:31N 36°38' W 000°29'1111.6
2014-Jul-16 00:33N 36°36' W 000°43'5611.1
2014-Jul-15 19:32N 36°25' W 001°51'2311.4
2014-Jul-15 17:29N 36°21' W 002°19'1311.3
2014-Jul-15 16:21N 36°18' W 002°35'13512.5
2014-Jul-15 05:33N 35°59' W 005°21'4410.9
2014-Jul-15 01:29N 35°55' W 006°15'2211.3
2014-Jul-14 23:33N 36°00' W 006°41'1212.0
2014-Jul-14 22:33N 36°03' W 006°56'1212.2
2014-Jul-14 21:34N 36°06' W 007°10'1212.4
2014-Jul-14 20:34N 36°10' W 007°25'1212.3
2014-Jul-14 19:34N 36°13' W 007°40'1212.2
2014-Jul-14 18:34N 36°16' W 007°54'1212.1
2014-Jul-14 17:34N 36°19' W 008°09'1212.2
2014-Jul-14 16:34N 36°22' W 008°24'1212.4
2014-Jul-14 15:33N 36°25' W 008°38'1212.4
2014-Jul-14 14:33N 36°29' W 008°53'1212.0
2014-Jul-14 13:33N 36°32' W 009°08'1211.6
2014-Jul-14 12:30N 36°38' W 009°21'1111.6
2014-Jul-14 11:33N 36°45' W 009°31'1111.5
2014-Jul-14 10:33N 36°56' W 009°36'1212.0
2014-Jul-14 09:33N 37°08' W 009°39'1212.2
2014-Jul-14 08:33N 37°20' W 009°43'1212.2
2014-Jul-14 07:33N 37°32' W 009°46'1212.2
2014-Jul-14 06:33N 37°44' W 009°49'1212.1
2014-Jul-14 05:33N 37°55' W 009°53'1212.4
2014-Jul-14 04:33N 38°08' W 009°56'1212.5
2014-Jul-14 03:34N 38°20' W 009°60'2512.3
2014-Jul-14 01:33N 38°44' W 010°06'4012.2
2014-Jul-13 22:17N 39°24' W 010°06'912.2
2014-Jul-13 21:32N 39°33' W 010°06'1212.3
2014-Jul-13 20:33N 39°45' W 010°06'1212.1
2014-Jul-13 19:33N 39°57' W 010°06'  
Track history (hours):
 
Tides and Currents Weather Stations Pressure Air Temp Water Temp Dewpoint Dewpoint Depression Visibility Wind Speed Wind Dir Waves Ship Positions

Woodgate

Last reported at 2014-Jul-23 01:25 UTC. Time now 2014-Jul-28 10:21 UTC.
Position N 29°15' E 032°41'.

Length 169 m; draft 9.9 m.

Type: Cargo ship. MMSI: 636015627.

Date/timePositionNaut miles runAvg speedWind from/ knotsBaromVisibWave heightAir tempDewpointWater temp
2014-Jul-23 01:25N 29°15' E 032°41'3411.9
2014-Jul-22 22:33N 29°48' E 032°32'2 1.0
2014-Jul-22 20:23N 29°50' E 032°32'  
2014-Jul-18 19:17N 36°03' E 015°37'912.1
2014-Jul-18 18:33N 36°05' E 015°26'1212.1
2014-Jul-18 17:33N 36°09' E 015°12'1212.0
2014-Jul-18 16:33N 36°12' E 014°58'1212.3
2014-Jul-18 15:33N 36°16' E 014°43'1212.4
2014-Jul-18 14:33N 36°20' E 014°29'1211.8
2014-Jul-18 13:33N 36°23' E 014°15'1212.0
2014-Jul-18 12:33N 36°26' E 014°00'1211.9
2014-Jul-18 11:33N 36°30' E 013°46'1212.0
2014-Jul-18 10:33N 36°35' E 013°33'1212.1
2014-Jul-18 09:33N 36°39' E 013°19'1312.9
2014-Jul-18 08:33N 36°44' E 013°04'1812.6
2014-Jul-18 07:09N 36°51' E 012°43'29712.1
2014-Jul-17 06:33N 37°26' E 006°33'1312.5
2014-Jul-17 05:32N 37°25' E 006°17'1413.0
2014-Jul-17 04:29N 37°24' E 006°00'1412.5
2014-Jul-17 03:24N 37°23' E 005°43'4611.9
2014-Jul-16 23:31N 37°18' E 004°46'1411.6
2014-Jul-16 22:21N 37°16' E 004°29'1111.2
2014-Jul-16 21:24N 37°16' E 004°15'1011.9
2014-Jul-16 20:33N 37°15' E 004°03'1612.0
2014-Jul-16 19:11N 37°13' E 003°42'812.1
2014-Jul-16 18:33N 37°12' E 003°33'1212.0
2014-Jul-16 17:32N 37°11' E 003°17'1111.5
2014-Jul-16 16:33N 37°10' E 003°03'1111.4
2014-Jul-16 15:33N 37°08' E 002°49'1212.0
2014-Jul-16 14:34N 37°06' E 002°34'1211.7
2014-Jul-16 13:33N 37°04' E 002°20'1211.6
2014-Jul-16 12:29N 37°01' E 002°05'1111.2
2014-Jul-16 11:29N 36°58' E 001°51'1011.0
2014-Jul-16 10:33N 36°58' E 001°38'1111.2
2014-Jul-16 09:33N 36°55' E 001°25'1111.4
2014-Jul-16 08:33N 36°52' E 001°11'1311.7
2014-Jul-16 07:27N 36°50' E 000°55'1411.8
2014-Jul-16 06:17N 36°48' E 000°38'911.6
2014-Jul-16 05:30N 36°46' E 000°27'1111.4
2014-Jul-16 04:33N 36°45' E 000°13'1211.5
2014-Jul-16 03:33N 36°43' W 000°01'1111.3
2014-Jul-16 02:33N 36°40' W 000°14'1211.6
2014-Jul-16 01:31N 36°38' W 000°29'1111.6
2014-Jul-16 00:33N 36°36' W 000°43'5611.1
2014-Jul-15 19:32N 36°25' W 001°51'2311.4
2014-Jul-15 17:29N 36°21' W 002°19'1311.3
2014-Jul-15 16:21N 36°18' W 002°35'13512.5
2014-Jul-15 05:33N 35°59' W 005°21'4410.9
2014-Jul-15 01:29N 35°55' W 006°15'2211.3
2014-Jul-14 23:33N 36°00' W 006°41'1212.0
2014-Jul-14 22:33N 36°03' W 006°56'1212.2
2014-Jul-14 21:34N 36°06' W 007°10'1212.4
2014-Jul-14 20:34N 36°10' W 007°25'1212.3
2014-Jul-14 19:34N 36°13' W 007°40'1212.2
2014-Jul-14 18:34N 36°16' W 007°54'1212.1
2014-Jul-14 17:34N 36°19' W 008°09'1212.2
2014-Jul-14 16:34N 36°22' W 008°24'1212.4
2014-Jul-14 15:33N 36°25' W 008°38'1212.4
2014-Jul-14 14:33N 36°29' W 008°53'1212.0
2014-Jul-14 13:33N 36°32' W 009°08'1211.6
2014-Jul-14 12:30N 36°38' W 009°21'1111.6
2014-Jul-14 11:33N 36°45' W 009°31'1111.5
2014-Jul-14 10:33N 36°56' W 009°36'1212.0
2014-Jul-14 09:33N 37°08' W 009°39'1212.2
2014-Jul-14 08:33N 37°20' W 009°43'1212.2
2014-Jul-14 07:33N 37°32' W 009°46'1212.2
2014-Jul-14 06:33N 37°44' W 009°49'1212.1
2014-Jul-14 05:33N 37°55' W 009°53'1212.4
2014-Jul-14 04:33N 38°08' W 009°56'1212.5
2014-Jul-14 03:34N 38°20' W 009°60'2512.3
2014-Jul-14 01:33N 38°44' W 010°06'4012.2
2014-Jul-13 22:17N 39°24' W 010°06'912.2
2014-Jul-13 21:32N 39°33' W 010°06'1212.3
2014-Jul-13 20:33N 39°45' W 010°06'1212.1
2014-Jul-13 19:33N 39°57' W 010°06'  

Dump ship's entire track history